McKean County Weather on FaceBook
Current Metar reports for airports in our Region

Nearby METAR Reports

Metar reports are mainly used by pilots for information on what is happening at their destination during their pre-flight weather briefings and by meteorologists to assist in short term forecasts. A raw Metar is one of the most universal ways to communicate weather information in the world and are usually transmitted by airports, but some come from permanent sanctioned weather observatories.

Listed below are Metars from airports within 100 miles of our station here in Smethport Pa. The first one of course is the Bradford Regional Airport, then the Olean NY airport and so on. Each airport has it's own table to display it's data and at the bottom of the table is 'Raw' Metar for each airport. Most pilots and weather forecasters can look at the raw data and tell you what is up, but we use a script that handles all of the details for us.

KBFD - Bradford, Pennsylvania, USA
Distance from station: NW 7mi, 11km
Updated: Tue, 25-Jun-2019 12:53pm EDT
Mostly Cloudy
Mostly Cloudy
 Wind from W
Wind: W 14 mph , 22 km/h
Temperature: 75°F , 24°C
Dew Point: 57°F , 14°C
Humidity: 54%
Barometer: 29.93 inHg , 1013.5 hPa
Clouds: Mostly Cloudy
Visibility: 10 miles , 16 km
Cloud details: Few Clouds 4100 ft
Partly Cloudy 5000 ft
Mostly Cloudy 6000 ft
2019/06/25 16:53 KBFD 251653Z AUTO 28012KT 10SM FEW041 SCT050 BKN060 24/14 A2993 RMK AO2 SLP120 T02390139
KOLE - Olean, New York, USA
Distance from station: NNE 37mi, 59km
Updated: Tue, 25-Jun-2019 1:15pm EDT
Mostly Cloudy
Mostly Cloudy
 Wind from W
Wind: W 5 mph , 7 km/h
Temperature: 70°F , 21°C
Dew Point: 57°F , 14°C
Humidity: 64%
Barometer: 29.93 inHg , 1013.5 hPa
Clouds: Mostly Cloudy
Visibility: 10 miles , 16 km
Cloud details: Partly Cloudy 3900 ft
Mostly Cloudy 4700 ft
Mostly Cloudy 5000 ft
2019/06/25 17:15 KOLE 251715Z AUTO 27004KT 10SM SCT039 BKN047 BKN050 21/14 A2993 RMK AO2
 
KELZ - Wellsville, New York, USA
Distance from station: NE 40mi, 64km
Updated: Tue, 25-Jun-2019 12:56pm EDT
Clear
Clear
 Wind from W
Wind: W 16 mph , 26 km/h, Gust: 24 mph , 39 km/h
Temperature: 73°F , 23°C
Dew Point: 59°F , 15°C
Humidity: 61%
Barometer: 29.92 inHg , 1013.2 hPa
Clouds: Clear
Visibility: 10 miles , 16 km
2019/06/25 16:56 KELZ 251656Z AUTO 27014G21KT 10SM CLR 23/15 A2992 RMK AO2 SLP119 T02280150
KDUJ - Du Bois, Pennsylvania, USA
Distance from station: SSW 42mi, 68km
Updated: Tue, 25-Jun-2019 12:53pm EDT
Mostly Cloudy
Mostly Cloudy
 Wind from WSW
Wind: WSW 16 mph , 26 km/h, Gust: 21 mph , 33 km/h
Temperature: 73°F , 23°C
Dew Point: 59°F , 15°C
Humidity: 61%
Barometer: 29.95 inHg , 1014.2 hPa
Clouds: Mostly Cloudy
Visibility: 10 miles , 16 km
Cloud details: Mostly Cloudy 4000 ft
Mostly Cloudy 4800 ft
Mostly Cloudy 5500 ft
2019/06/25 16:53 KDUJ 251653Z AUTO 25014G18KT 10SM BKN040 BKN048 BKN055 23/15 A2995 RMK AO2 SLP128 T02330150
 
KJHW - Jamestown, New York, USA
Distance from station: NW 46mi, 75km
Updated: Tue, 25-Jun-2019 12:56pm EDT
Mostly Cloudy
Mostly Cloudy
 Wind from SW
Wind: SW 15 mph , 24 km/h, Gust: 21 mph , 33 km/h
Temperature: 73°F , 23°C
Dew Point: 59°F , 15°C
Humidity: 61%
Barometer: 29.92 inHg , 1013.2 hPa
Clouds: Mostly Cloudy
Visibility: 10 miles , 16 km
Cloud details: Few Clouds 3300 ft
Partly Cloudy 4500 ft
Mostly Cloudy 5500 ft
2019/06/25 16:56 KJHW 251656Z AUTO 23013G18KT 10SM FEW033 SCT045 BKN055 23/15 A2992 RMK AO2 SLP125 T02280150
KFIG - Clearfield, Pennsylvania, USA
Distance from station: S 47mi, 75km
Updated: Tue, 25-Jun-2019 12:54pm EDT
Mostly Cloudy
Mostly Cloudy
 Wind from W
Wind: W 13 mph , 20 km/h, Gust: 23 mph , 37 km/h
Temperature: 75°F , 24°C
Dew Point: 61°F , 16°C
Humidity: 61%
Barometer: 29.94 inHg , 1013.9 hPa
Clouds: Mostly Cloudy
Visibility: 10 miles , 16 km
Cloud details: Mostly Cloudy 4500 ft
Mostly Cloudy 5500 ft
2019/06/25 16:54 KFIG 251654Z AUTO 28011G20KT 10SM BKN045 BKN055 24/16 A2994 RMK AO2 SLP126 T02440156
 
KDKK - Dunkirk, New York, USA
Distance from station: NW 66mi, 106km
Updated: Tue, 25-Jun-2019 12:53pm EDT
Few Clouds
Few Clouds
 Wind from WSW
Wind: WSW 22 mph , 35 km/h, Gust: 35 mph , 56 km/h
Temperature: 72°F , 22°C
Dew Point: 61°F , 16°C
Humidity: 69%
Barometer: 29.90 inHg , 1012.5 hPa
Clouds: Few Clouds
Visibility: 10 miles , 16 km
Cloud details: Few Clouds 2100 ft
2019/06/25 16:53 KDKK 251653Z AUTO 25019G30KT 10SM FEW021 22/16 A2990 RMK AO2 PK WND 25031/1627 SLP120 T02220161 $
KUNV - State College, Pennsylvania, USA
Distance from station: SSE 71mi, 114km
Updated: Tue, 25-Jun-2019 12:53pm EDT
Partly Cloudy
Partly Cloudy
 Wind from W
Wind: W 12 mph , 19 km/h, Gust: 20 mph , 31 km/h
Temperature: 79°F , 26°C
Dew Point: 61°F , 16°C
Humidity: 54%
Barometer: 29.91 inHg , 1012.9 hPa
Clouds: Partly Cloudy
Visibility: 10 miles , 16 km
Cloud details: Partly Cloudy 4500 ft
Partly Cloudy 6000 ft
2019/06/25 16:53 KUNV 251653Z 28010G17KT 10SM SCT045 SCT060 26/16 A2991
 
KFKL - Franklin, Pennsylvania, USA
Distance from station: WSW 72mi, 116km
Updated: Tue, 25-Jun-2019 12:56pm EDT
Mostly Cloudy
Mostly Cloudy
 Wind from W
Wind: W 13 mph , 20 km/h, Gust: 23 mph , 37 km/h
Temperature: 73°F , 23°C
Dew Point: 57°F , 14°C
Humidity: 57%
Barometer: 29.95 inHg , 1014.2 hPa
Clouds: Mostly Cloudy
Visibility: 10 miles , 16 km
Cloud details: Mostly Cloudy 4400 ft
2019/06/25 16:56 KFKL 251656Z AUTO 26011G20KT 10SM BKN044 23/14 A2995 RMK AO2 SLP134 T02330144
KDSV - Dansville, New York, USA
Distance from station: NE 73mi, 117km
Updated: Tue, 25-Jun-2019 12:54pm EDT
Few Clouds
Few Clouds
 Wind from WNW
Wind: WNW 9 mph , 15 km/h, Gust: 18 mph , 30 km/h
Temperature: 81°F , 27°C
Heat Index: 82°F , 28°C
Dew Point: 61°F , 16°C
Humidity: 51%
Barometer: 29.84 inHg , 1010.5 hPa
Clouds: Few Clouds
Visibility: 10 miles , 16 km
Cloud details: Few Clouds 4900 ft
2019/06/25 16:54 KDSV 251654Z AUTO 29008G16KT 260V330 10SM FEW049 27/16 A2984 RMK AO2 SLP107 T02670156
 
KIDI - Indiana/Stewart, Pennsylvania, USA
Distance from station: SSW 81mi, 130km
Updated: Tue, 25-Jun-2019 1:15pm EDT
Partly Cloudy
Partly Cloudy
 Wind from W
Wind: W 13 mph , 20 km/h
Temperature: 77°F , 25°C
Dew Point: 63°F , 17°C
Humidity: 61%
Barometer: 29.99 inHg , 1015.6 hPa
Clouds: Partly Cloudy
Visibility: 10 miles , 16 km
Cloud details: Partly Cloudy 4100 ft
Partly Cloudy 5500 ft
2019/06/25 17:15 KIDI 251715Z AUTO 28011KT 10SM SCT041 SCT055 25/17 A2999 RMK A01
KBUF - Buffalo/Cheektow, New York, USA
Distance from station: N 84mi, 136km
Updated: Tue, 25-Jun-2019 12:54pm EDT
Few Clouds
Few Clouds
 Wind from WSW
Wind: WSW 24 mph , 39 km/h, Gust: 33 mph , 54 km/h
Temperature: 72°F , 22°C
Dew Point: 61°F , 16°C
Humidity: 69%
Barometer: 29.86 inHg , 1011.2 hPa
Clouds: Few Clouds
Visibility: 10 miles , 16 km
Cloud details: Few Clouds 1600 ft
Few Clouds 27000 ft
2019/06/25 16:54 KBUF 251654Z 24021G29KT 10SM FEW016 FEW270 22/16 A2986 RMK AO2 PK WND 25034/1641 SLP109 T02170161
 
KGKJ - Meadville, Pennsylvania, USA
Distance from station: W 86mi, 138km
Updated: Tue, 25-Jun-2019 12:53pm EDT
Few Clouds
Few Clouds
 Wind from W
Wind: W 17 mph , 28 km/h
Temperature: 75°F , 24°C
Dew Point: 55°F , 13°C
Humidity: 50%
Barometer: 29.93 inHg , 1013.5 hPa
Clouds: Few Clouds
Visibility: 10 miles , 16 km
Cloud details: Few Clouds 4700 ft
Few Clouds 5500 ft
2019/06/25 16:53 KGKJ 251653Z AUTO 26015KT 10SM FEW047 FEW055 24/13 A2993 RMK AO2 SLP126 T02390133 TSNO
KERI - Erie, Pennsylvania, USA
Distance from station: WNW 87mi, 140km
Updated: Tue, 25-Jun-2019 12:51pm EDT
Clear
Clear
 Wind from W
Wind: W 17 mph , 28 km/h, Gust: 29 mph , 46 km/h
Temperature: 73°F , 23°C
Dew Point: 61°F , 16°C
Humidity: 65%
Barometer: 29.92 inHg , 1013.2 hPa
Clouds: Clear
Visibility: 10 miles , 16 km
2019/06/25 16:51 KERI 251651Z 26015G25KT 10SM CLR 23/16 A2992 RMK AO2 PK WND 25027/1558 SLP126 T02330161
 
KELM - Elmira, New York, USA
Distance from station: ENE 90mi, 145km
Updated: Tue, 25-Jun-2019 12:53pm EDT
Partly Cloudy
Partly Cloudy
 Wind from WNW
Wind: WNW 17 mph , 28 km/h, Gust: 25 mph , 41 km/h
Temperature: 82°F , 28°C
Heat Index: 82°F , 28°C
Dew Point: 61°F , 16°C
Humidity: 48%
Barometer: 29.83 inHg , 1010.2 hPa
Clouds: Partly Cloudy
Visibility: 10 miles , 16 km
Cloud details: Partly Cloudy 5500 ft
2019/06/25 16:53 KELM 251653Z 29015G22KT 10SM SCT055 28/16 A2983 RMK AO2 SLP095 T02780156
KIPT - Williamsport, Pennsylvania, USA
Distance from station: ESE 91mi, 146km
Updated: Tue, 25-Jun-2019 12:54pm EDT
Partly Cloudy
Partly Cloudy
 Wind from SW
Wind: SW 9 mph , 15 km/h
Temperature: 82°F , 28°C
Heat Index: 83°F , 28°C
Dew Point: 63°F , 17°C
Humidity: 51%
Barometer: 29.84 inHg , 1010.5 hPa
Clouds: Partly Cloudy
Visibility: 10 miles , 16 km
Cloud details: Partly Cloudy 6500 ft
2019/06/25 16:54 KIPT 251654Z 23008KT 10SM SCT065 28/17 A2984 RMK AO2 SLP099 T02780172
 
KBTP - Butler Co., Pennsylvania, USA
Distance from station: SW 98mi, 157km
Updated: Tue, 25-Jun-2019 12:56pm EDT
Mostly Cloudy
Mostly Cloudy
 Wind from WSW
Wind: WSW 13 mph , 20 km/h
Temperature: 75°F , 24°C
Dew Point: 61°F , 16°C
Humidity: 61%
Barometer: 29.96 inHg , 1014.6 hPa
Clouds: Mostly Cloudy
Visibility: 10 miles , 16 km
Cloud details: Mostly Cloudy 4300 ft
Mostly Cloudy 5000 ft
2019/06/25 16:56 KBTP 251656Z AUTO 25011KT 10SM BKN043 BKN050 24/16 A2996 RMK AO2 SLP144 T02440156
KAOO - Altoona, Pennsylvania, USA
Distance from station: S 99mi, 159km
Updated: Tue, 25-Jun-2019 12:53pm EDT
Few Clouds
Few Clouds
 Wind from WNW
Wind: WNW 20 mph , 31 km/h, Gust: 28 mph , 44 km/h
Temperature: 79°F , 26°C
Dew Point: 57°F , 14°C
Humidity: 48%
Barometer: 29.95 inHg , 1014.2 hPa
Clouds: Few Clouds
Visibility: 10 miles , 16 km
Cloud details: Few Clouds 4700 ft
2019/06/25 16:53 KAOO 251653Z AUTO 29017G24KT 10SM FEW047 26/14 A2995 RMK AO2 SLP128 T02610139
 
KPIT - Pittsburg, Pennsylvania, USA
Distance from station: SSW 126mi, 203km
Updated: Tue, 25-Jun-2019 12:51pm EDT
Mostly Cloudy
Mostly Cloudy
 Wind from W
Wind: W 14 mph , 22 km/h, Gust: 21 mph , 33 km/h
Temperature: 79°F , 26°C
Dew Point: 59°F , 15°C
Humidity: 51%
Barometer: 29.96 inHg , 1014.6 hPa
Clouds: Mostly Cloudy
Visibility: 10 miles , 16 km
Cloud details: Mostly Cloudy 4200 ft
Mostly Cloudy 25000 ft
2019/06/25 16:51 KPIT 251651Z 28012G18KT 10SM BKN042 BKN250 26/15 A2996 RMK AO2 SLP145 T02560150
KCLE - Cleveland, Ohio, USA
Distance from station: WSW 160mi, 258km
Updated: Tue, 25-Jun-2019 12:51pm EDT
Few Clouds
Few Clouds
 Wind from WNW
Wind: WNW 21 mph , 33 km/h, Gust: 29 mph , 46 km/h
Temperature: 81°F , 27°C
Heat Index: 81°F , 27°C
Dew Point: 55°F , 13°C
Humidity: 42%
Barometer: 29.95 inHg , 1014.2 hPa
Clouds: Few Clouds
Visibility: 10 miles , 16 km
Cloud details: Few Clouds 6000 ft
2019/06/25 16:51 KCLE 251651Z 29018G25KT 10SM FEW060 27/13 A2995 RMK AO2 SLP136 T02670128